Glen Elder, Kansas
Current Conditions -  °F | °C
As of 1:55 AM on Friday 28 Nov 2014 (Local Time) from KCNK Reporting Station
Clear Clear  
Wind Chill: 25°   Ceiling: Unl
Heat Index: 32°   Visibility: 10mi
Dew Point: 22°   Wind: 8mph
Humidity: 66%   Direction: 160°SSE
Pressure: 30"   Gusts: NA
Location:  39.5°N, 98.31°W
Report Text: KCNK 280755Z AUTO 16007KT 10SM CLR 00/M06 A3000 RMK AO2 SLP168 T00001056
Loading
Personal Weather Stations






























Interactive Weather Map New forecast layout! Learn more

10-Day Weather Forecast

Advertisements
Track Severe Weather on mobile